Time;durP1;ratioP1;P1;durP2;ratioP2;P2;SDS_P1;SDS_P2;PMS_P1;PMS_P2;Temp;Humidity;BMP_temperature;BMP_pressure;BME280_temperature;BME280_humidity;BME280_pressure;Samples;Min_cycle;Max_cycle;Signal;HPM_P1;HPM_P2
2023/03/14 00:00:36;;;;;;;8.80;1.27;;;8.70;99.90;;;;;;5052003;28;20184;-65
2023/03/14 00:03:02;;;;;;;8.47;1.00;;;7.90;99.90;;;;;;5047188;28;20707;-65
2023/03/14 00:05:27;;;;;;;11.50;1.20;;;7.80;99.90;;;;;;5051609;28;20265;-66
2023/03/14 00:07:54;;;;;;;8.73;1.20;;;7.90;99.90;;;;;;5051997;28;20586;-66
2023/03/14 00:10:19;;;;;;;9.33;1.03;;;7.60;99.90;;;;;;5033425;28;20223;-65
2023/03/14 00:12:45;;;;;;;8.57;1.03;;;7.60;99.90;;;;;;5050444;28;20252;-65
2023/03/14 00:15:11;;;;;;;8.33;1.17;;;7.50;99.90;;;;;;5043079;28;20555;-65
2023/03/14 00:17:38;;;;;;;5.07;0.90;;;7.50;99.90;;;;;;5052846;28;20684;-65
2023/03/14 00:20:10;;;;;;;8.23;1.30;;;8.20;99.90;;;;;;5035473;28;20541;-65
2023/03/14 00:22:37;;;;;;;5.33;1.03;;;7.40;99.90;;;;;;5031863;28;20170;-65
2023/03/14 00:25:04;;;;;;;5.07;1.07;;;7.40;99.90;;;;;;5027647;28;20193;-65
2023/03/14 00:27:30;;;;;;;8.53;1.23;;;7.30;99.90;;;;;;5033056;28;20217;-65
2023/03/14 00:29:55;;;;;;;8.13;1.13;;;7.40;99.90;;;;;;5032231;28;20209;-66
2023/03/14 00:32:21;;;;;;;4.97;1.00;;;7.20;99.90;;;;;;5050320;28;20211;-66
2023/03/14 00:34:47;;;;;;;7.97;1.13;;;6.80;99.90;;;;;;5051465;28;20204;-65
2023/03/14 00:37:12;;;;;;;7.17;1.37;;;7.00;99.90;;;;;;5031727;28;20305;-65
2023/03/14 00:39:38;;;;;;;11.73;1.13;;;6.80;99.90;;;;;;5032335;28;20208;-65
2023/03/14 00:42:04;;;;;;;9.17;1.17;;;6.80;99.90;;;;;;5014060;28;20243;-64
2023/03/14 00:44:29;;;;;;;5.93;0.90;;;7.00;99.90;;;;;;5046416;28;20192;-64
2023/03/14 00:46:55;;;;;;;4.47;1.13;;;6.90;99.90;;;;;;5052051;28;20205;-64
2023/03/14 00:49:21;;;;;;;13.13;1.40;;;;;;;;;;5039901;28;20231;-65
2023/03/14 00:51:46;;;;;;;5.63;1.07;;;6.70;99.90;;;;;;5044166;28;20181;-65
2023/03/14 00:54:12;;;;;;;12.50;1.37;;;6.70;99.90;;;;;;5041163;28;20180;-64
2023/03/14 00:56:37;;;;;;;9.50;1.20;;;6.70;99.90;;;;;;5036792;28;20178;-65
2023/03/14 00:59:03;;;;;;;9.60;1.37;;;6.60;99.90;;;;;;5045062;28;20217;-64
2023/03/14 01:01:29;;;;;;;4.57;1.30;;;6.80;99.90;;;;;;5051963;28;20622;-65
2023/03/14 01:03:55;;;;;;;14.70;1.33;;;6.60;99.90;;;;;;5036869;28;20169;-65
2023/03/14 01:06:26;;;;;;;17.27;1.47;;;6.70;99.90;;;;;;5048443;28;20260;-65
2023/03/14 01:08:53;;;;;;;13.90;1.20;;;7.80;99.90;;;;;;5050542;28;20252;-65
2023/03/14 01:11:23;;;;;;;9.57;1.17;;;6.50;99.90;;;;;;5051739;28;20181;-67
2023/03/14 01:13:49;;;;;;;10.43;1.20;;;6.90;99.90;;;;;;5026239;28;20225;-65
2023/03/14 01:16:16;;;;;;;8.33;0.93;;;6.60;99.90;;;;;;5047778;28;20178;-66
2023/03/14 01:18:43;;;;;;;5.53;1.30;;;6.70;99.90;;;;;;5042593;28;20300;-65
2023/03/14 01:21:32;;;;;;;10.10;1.20;;;6.90;99.90;;;;;;5031648;28;20178;-65
2023/03/14 01:23:59;;;;;;;5.30;1.20;;;6.60;99.90;;;;;;5032098;28;20166;-66
2023/03/14 01:26:28;;;;;;;6.30;1.13;;;6.60;99.90;;;;;;5032147;28;20177;-67
2023/03/14 01:28:55;;;;;;;8.30;1.50;;;6.20;99.90;;;;;;5031840;28;20174;-67
2023/03/14 01:31:21;;;;;;;8.53;1.07;;;6.60;99.90;;;;;;5038633;28;20176;-67
2023/03/14 01:33:47;;;;;;;7.00;1.00;;;6.50;99.90;;;;;;5050995;28;20184;-67
2023/03/14 01:36:12;;;;;;;10.13;1.00;;;6.40;99.90;;;;;;5051151;28;20709;-67
2023/03/14 01:38:39;;;;;;;6.63;1.10;;;;;;;;;;5051365;28;20742;-67
2023/03/14 01:41:06;;;;;;;8.73;1.23;;;6.30;99.90;;;;;;5051584;28;20166;-66
2023/03/14 01:43:31;;;;;;;10.17;1.10;;;6.20;99.90;;;;;;5051516;28;20677;-66
2023/03/14 01:46:06;;;;;;;7.33;1.17;;;6.20;99.90;;;;;;5051177;28;20181;-67
2023/03/14 01:48:43;;;;;;;9.67;1.30;;;6.20;99.90;;;;;;5033379;28;20564;-67
2023/03/14 01:51:17;;;;;;;10.17;1.27;;;6.10;99.90;;;;;;5037536;28;20247;-66
2023/03/14 01:53:45;;;;;;;6.43;1.10;;;5.70;99.90;;;;;;5050732;28;20185;-66
2023/03/14 01:56:13;;;;;;;14.47;1.37;;;6.10;99.90;;;;;;5027668;28;20179;-67
2023/03/14 01:58:43;;;;;;;11.87;1.50;;;6.10;99.90;;;;;;5038854;28;20270;-67
2023/03/14 02:01:09;;;;;;;7.20;1.20;;;6.10;99.90;;;;;;5028753;28;20193;-66
2023/03/14 02:03:46;;;;;;;11.47;1.17;;;6.10;99.90;;;;;;5047059;28;20189;-67
2023/03/14 02:06:13;;;;;;;10.03;1.40;;;6.00;99.90;;;;;;5023776;28;20255;-67
2023/03/14 02:08:40;;;;;;;15.40;1.50;;;6.00;99.90;;;;;;5032679;28;20219;-66
2023/03/14 02:11:07;;;;;;;11.07;1.33;;;5.90;99.90;;;;;;5049495;28;20178;-67
2023/03/14 02:13:32;;;;;;;9.13;1.40;;;5.90;99.90;;;;;;5038019;28;20232;-66
2023/03/14 02:15:58;;;;;;;9.33;1.53;;;6.10;99.90;;;;;;5026896;28;20188;-66
2023/03/14 02:18:25;;;;;;;10.23;1.50;;;5.90;99.90;;;;;;5050113;28;20283;-66
2023/03/14 02:21:04;;;;;;;12.57;1.53;;;5.90;99.90;;;;;;5030785;28;20601;-67
2023/03/14 02:23:39;;;;;;;10.07;1.73;;;6.10;99.90;;;;;;5029340;28;20253;-64
2023/03/14 02:26:15;;;;;;;16.17;1.77;;;6.00;99.90;;;;;;5030517;28;20200;-64
2023/03/14 02:28:40;;;;;;;9.37;1.33;;;6.00;99.90;;;;;;5029787;28;20185;-64
2023/03/14 02:31:08;;;;;;;21.23;1.73;;;6.00;99.90;;;;;;5034353;28;20206;-64
2023/03/14 02:33:37;;;;;;;10.33;1.20;;;6.10;99.90;;;;;;5049835;28;20173;-64
2023/03/14 02:36:06;;;;;;;13.23;1.77;;;5.80;99.90;;;;;;5049327;28;20244;-64
2023/03/14 02:38:52;;;;;;;9.83;1.47;;;6.00;99.90;;;;;;5049736;28;20197;-64
2023/03/14 02:41:17;;;;;;;9.50;1.33;;;6.00;99.90;;;;;;5050243;28;20231;-65
2023/03/14 02:43:43;;;;;;;13.13;1.63;;;6.10;99.90;;;;;;5050491;28;20181;-66
2023/03/14 02:46:19;;;;;;;11.80;1.47;;;5.50;99.90;;;;;;5049329;28;20231;-64
2023/03/14 02:48:53;;;;;;;7.40;1.37;;;5.80;99.90;;;;;;5034425;28;20188;-66
2023/03/14 02:51:20;;;;;;;10.53;1.60;;;6.10;99.90;;;;;;5049419;28;20172;-66
2023/03/14 02:53:46;;;;;;;14.53;1.67;;;6.20;99.90;;;;;;5050300;28;20176;-66
2023/03/14 02:56:12;;;;;;;13.33;1.70;;;6.10;99.90;;;;;;5049992;28;20178;-66
2023/03/14 02:58:38;;;;;;;13.33;1.57;;;6.00;99.90;;;;;;5048104;28;20300;-65
2023/03/14 03:01:03;;;;;;;10.93;1.17;;;6.10;99.90;;;;;;5045702;28;20173;-66
2023/03/14 03:03:29;;;;;;;16.57;1.70;;;6.20;99.90;;;;;;5049356;28;20227;-65
2023/03/14 03:05:56;;;;;;;12.93;1.40;;;6.40;99.90;;;;;;5032370;28;20197;-66
2023/03/14 03:08:24;;;;;;;9.90;1.07;;;6.20;99.90;;;;;;5039890;28;20205;-66
2023/03/14 03:10:50;;;;;;;9.13;1.37;;;6.20;99.90;;;;;;5036111;28;20180;-65
2023/03/14 03:13:16;;;;;;;8.97;1.37;;;6.20;99.90;;;;;;5039450;28;20221;-65
2023/03/14 03:15:42;;;;;;;10.07;1.50;;;6.30;99.90;;;;;;5042546;28;20182;-65
2023/03/14 03:18:09;;;;;;;12.33;1.67;;;6.40;99.90;;;;;;5049336;28;20204;-65
2023/03/14 03:20:34;;;;;;;8.37;0.97;;;6.90;99.90;;;;;;5052470;28;20180;-66
2023/03/14 03:23:00;;;;;;;14.03;1.53;;;6.30;99.90;;;;;;5052439;28;20162;-65
2023/03/14 03:25:27;;;;;;;11.80;1.37;;;6.50;99.90;;;;;;5052133;28;20177;-65
2023/03/14 03:27:52;;;;;;;6.70;1.50;;;6.40;99.90;;;;;;5052377;28;20173;-65
2023/03/14 03:30:18;;;;;;;15.10;1.53;;;6.30;99.90;;;;;;5052803;28;20287;-65
2023/03/14 03:32:44;;;;;;;11.33;1.53;;;6.40;99.90;;;;;;5051960;28;20169;-65
2023/03/14 03:35:10;;;;;;;14.17;1.17;;;6.70;99.90;;;;;;5052605;28;20654;-65
2023/03/14 03:37:36;;;;;;;12.23;1.50;;;6.50;99.90;;;;;;5052923;28;20250;-64
2023/03/14 03:40:05;;;;;;;5.47;1.20;;;6.80;99.90;;;;;;5052338;28;20215;-64
2023/03/14 03:42:32;;;;;;;11.17;1.60;;;6.40;99.90;;;;;;5052533;28;20177;-65
2023/03/14 03:44:57;;;;;;;7.30;1.13;;;6.50;99.90;;;;;;5034229;28;20601;-64
2023/03/14 03:47:23;;;;;;;9.97;1.47;;;6.70;99.90;;;;;;5052552;28;20169;-64
2023/03/14 03:49:49;;;;;;;8.90;1.40;;;;;;;;;;5045740;28;20181;-64
2023/03/14 03:52:14;;;;;;;12.73;1.73;;;7.10;99.90;;;;;;5050257;28;20231;-65
2023/03/14 03:54:40;;;;;;;6.57;1.10;;;6.50;99.90;;;;;;5014236;28;20244;-65
2023/03/14 03:57:06;;;;;;;16.90;1.70;;;6.40;99.90;;;;;;5040794;28;20554;-64
2023/03/14 03:59:32;;;;;;;10.53;1.47;;;;;;;;;;5047039;28;20181;-64
2023/03/14 04:01:57;;;;;;;13.50;1.70;;;6.40;99.90;;;;;;5034516;28;20177;-64
2023/03/14 04:04:23;;;;;;;10.73;1.57;;;6.50;99.90;;;;;;5041870;28;20204;-65
2023/03/14 04:06:49;;;;;;;9.63;1.40;;;;;;;;;;5036675;28;20256;-65
2023/03/14 04:09:15;;;;;;;10.07;1.30;;;6.60;99.90;;;;;;5052368;28;20214;-64
2023/03/14 04:11:41;;;;;;;13.47;1.20;;;6.60;99.90;;;;;;5050818;28;20189;-63
2023/03/14 04:14:07;;;;;;;9.03;1.67;;;6.10;99.90;;;;;;5051614;28;20225;-64
2023/03/14 04:16:32;;;;;;;10.20;1.10;;;6.40;99.90;;;;;;5052366;28;20584;-63
2023/03/14 04:18:58;;;;;;;12.20;1.53;;;6.40;99.90;;;;;;5053045;28;20745;-64
2023/03/14 04:21:24;;;;;;;12.77;1.70;;;5.80;99.90;;;;;;5048685;28;20165;-64
2023/03/14 04:23:50;;;;;;;10.57;1.43;;;;;;;;;;5025112;28;20674;-65
2023/03/14 04:26:16;;;;;;;12.40;1.20;;;6.00;99.90;;;;;;5037549;28;20170;-65
2023/03/14 04:28:42;;;;;;;6.40;1.03;;;6.10;99.90;;;;;;5051700;28;20177;-65
2023/03/14 04:31:09;;;;;;;9.57;1.63;;;6.30;99.90;;;;;;5052520;28;20217;-65
2023/03/14 04:33:36;;;;;;;9.63;1.17;;;;;;;;;;5041216;28;20272;-65
2023/03/14 04:36:03;;;;;;;7.03;1.40;;;6.20;99.90;;;;;;5037357;28;20213;-65
2023/03/14 04:38:29;;;;;;;11.50;1.13;;;;;;;;;;5052598;28;20204;-66
2023/03/14 04:40:54;;;;;;;9.43;1.20;;;5.80;99.90;;;;;;5050713;28;20250;-66
2023/03/14 04:43:20;;;;;;;3.97;0.93;;;5.90;99.90;;;;;;5051264;28;20185;-64
2023/03/14 04:45:45;;;;;;;12.30;1.40;;;6.00;99.90;;;;;;5051622;28;20180;-65
2023/03/14 04:48:12;;;;;;;10.33;1.83;;;5.90;99.90;;;;;;5051688;28;20601;-65
2023/03/14 04:50:38;;;;;;;12.17;1.30;;;6.10;99.90;;;;;;5041827;28;20240;-65
2023/03/14 04:53:04;;;;;;;12.77;1.20;;;6.10;99.90;;;;;;5026326;28;20392;-65
2023/03/14 04:55:32;;;;;;;8.80;1.67;;;6.10;99.90;;;;;;5051113;28;20181;-65
2023/03/14 04:57:58;;;;;;;13.03;1.60;;;;;;;;;;5051665;28;20197;-65
2023/03/14 05:00:23;;;;;;;6.93;1.13;;;6.00;99.90;;;;;;5044566;28;20203;-65
2023/03/14 05:02:49;;;;;;;4.03;1.10;;;;;;;;;;5046559;28;20177;-65
2023/03/14 05:05:15;;;;;;;12.23;1.80;;;5.90;99.90;;;;;;5051276;28;20190;-65
2023/03/14 05:07:40;;;;;;;8.43;1.50;;;6.20;99.90;;;;;;5051927;28;20188;-65
2023/03/14 05:10:07;;;;;;;9.17;1.43;;;;;;;;;;5034419;28;20268;-65
2023/03/14 05:12:32;;;;;;;10.77;1.33;;;6.10;99.90;;;;;;5052213;28;20307;-65
2023/03/14 05:14:58;;;;;;;9.43;1.23;;;6.00;99.90;;;;;;5052266;28;20684;-64
2023/03/14 05:17:23;;;;;;;14.30;1.80;;;6.20;99.90;;;;;;5051978;28;20201;-64
2023/03/14 05:19:49;;;;;;;11.47;1.67;;;;;;;;;;5051837;28;20252;-64
2023/03/14 05:22:15;;;;;;;13.87;1.47;;;;;;;;;;5052044;28;20184;-63
2023/03/14 05:24:41;;;;;;;16.43;1.90;;;;;;;;;;5051971;28;20177;-67
2023/03/14 05:27:07;;;;;;;17.10;1.53;;;6.00;99.90;;;;;;5051936;28;20552;-67
2023/03/14 05:29:32;;;;;;;10.63;1.50;;;5.80;99.90;;;;;;5050952;28;20182;-67
2023/03/14 05:31:58;;;;;;;5.13;1.03;;;5.70;99.90;;;;;;5050565;28;20694;-67
2023/03/14 05:34:24;;;;;;;11.73;1.30;;;5.30;99.90;;;;;;5050775;28;20249;-67
2023/03/14 05:36:49;;;;;;;10.27;1.40;;;5.80;99.90;;;;;;5044896;28;20240;-66
2023/03/14 05:39:15;;;;;;;7.67;1.33;;;5.70;99.90;;;;;;5046067;28;20212;-65
2023/03/14 05:41:40;;;;;;;8.27;1.13;;;5.50;99.90;;;;;;5048722;28;20636;-67
2023/03/14 05:44:06;;;;;;;7.63;1.03;;;5.80;99.90;;;;;;5031143;28;20272;-67
2023/03/14 05:46:32;;;;;;;8.40;1.40;;;5.60;99.90;;;;;;5030406;28;20170;-65
2023/03/14 05:48:58;;;;;;;9.20;1.40;;;5.60;99.90;;;;;;5030564;28;20547;-65
2023/03/14 05:51:24;;;;;;;12.57;1.13;;;5.60;99.90;;;;;;5043042;28;20285;-65
2023/03/14 05:53:50;;;;;;;10.07;1.27;;;5.70;99.90;;;;;;5036462;28;20207;-69
2023/03/14 05:56:15;;;;;;;8.90;1.10;;;5.20;99.90;;;;;;5023935;28;20251;-67
2023/03/14 05:58:41;;;;;;;11.77;1.53;;;5.60;99.90;;;;;;5045482;28;20689;-66
2023/03/14 06:01:07;;;;;;;11.77;1.60;;;5.50;99.90;;;;;;5044446;28;20247;-66
2023/03/14 06:03:33;;;;;;;9.90;1.27;;;;;;;;;;5047237;28;20177;-66
2023/03/14 06:05:59;;;;;;;9.93;1.30;;;5.50;99.90;;;;;;5049755;28;20182;-65
2023/03/14 06:08:25;;;;;;;9.97;1.30;;;5.50;99.90;;;;;;5051036;28;20231;-66
2023/03/14 06:10:51;;;;;;;9.83;1.37;;;5.20;99.90;;;;;;5050563;28;20173;-66
2023/03/14 06:13:17;;;;;;;13.57;1.77;;;5.70;99.90;;;;;;5048696;28;20220;-67
2023/03/14 06:15:43;;;;;;;9.47;1.53;;;5.30;99.90;;;;;;5050871;28;20173;-67
2023/03/14 06:18:08;;;;;;;7.20;1.00;;;5.20;99.90;;;;;;5048122;28;20258;-67
2023/03/14 06:20:38;;;;;;;6.30;1.20;;;5.20;99.90;;;;;;5049752;28;20644;-66
2023/03/14 06:23:05;;;;;;;15.70;2.00;;;5.10;99.90;;;;;;5040823;28;20169;-66
2023/03/14 06:25:31;;;;;;;14.30;1.20;;;;;;;;;;5051070;28;20179;-66
2023/03/14 06:27:57;;;;;;;7.40;1.50;;;;;;;;;;5050915;28;20185;-67
2023/03/14 06:30:23;;;;;;;6.00;1.20;;;5.10;99.90;;;;;;5050753;28;20188;-67
2023/03/14 06:32:48;;;;;;;12.00;1.47;;;5.20;99.90;;;;;;5038179;28;20178;-67
2023/03/14 06:35:14;;;;;;;10.47;1.70;;;;;;;;;;5048555;28;20177;-68
2023/03/14 06:37:40;;;;;;;15.20;1.40;;;5.20;99.90;;;;;;5039255;28;20220;-68
2023/03/14 06:40:07;;;;;;;7.20;1.53;;;5.30;99.90;;;;;;5050742;28;20169;-68
2023/03/14 06:42:33;;;;;;;7.70;1.30;;;5.30;99.90;;;;;;5048479;28;20268;-68
2023/03/14 06:44:58;;;;;;;11.77;1.57;;;5.10;99.90;;;;;;5050001;28;20335;-67
2023/03/14 06:47:24;;;;;;;7.33;1.40;;;5.50;99.90;;;;;;5037593;28;20181;-67
2023/03/14 06:49:49;;;;;;;6.73;1.10;;;5.50;99.90;;;;;;5051359;28;20177;-68
2023/03/14 06:52:15;;;;;;;6.67;1.07;;;5.50;99.90;;;;;;5033032;28;20284;-68
2023/03/14 06:54:41;;;;;;;8.13;1.20;;;;;;;;;;5044230;28;20555;-68
2023/03/14 06:57:07;;;;;;;10.43;1.20;;;5.70;99.90;;;;;;5041735;28;20658;-67
2023/03/14 06:59:32;;;;;;;9.47;1.80;;;5.60;99.90;;;;;;5049969;28;20182;-68
2023/03/14 07:01:58;;;;;;;8.17;1.53;;;5.60;99.90;;;;;;5049973;28;20539;-68
2023/03/14 07:04:24;;;;;;;9.67;1.10;;;5.60;99.90;;;;;;5045180;28;20195;-68
2023/03/14 07:06:49;;;;;;;9.33;1.10;;;5.70;99.90;;;;;;5053793;28;20571;-68
2023/03/14 07:09:17;;;;;;;16.77;1.30;;;5.60;99.90;;;;;;5035431;28;20234;-68
2023/03/14 07:11:43;;;;;;;11.23;1.57;;;5.80;99.90;;;;;;5049527;28;20677;-67
2023/03/14 07:14:08;;;;;;;6.03;0.87;;;4.80;99.90;;;;;;5044593;28;20217;-67
2023/03/14 07:16:34;;;;;;;11.43;1.67;;;5.60;99.90;;;;;;5050390;28;20173;-67
2023/03/14 07:19:00;;;;;;;9.30;1.13;;;5.70;99.90;;;;;;5050583;28;20328;-67
2023/03/14 07:21:26;;;;;;;9.27;1.50;;;5.80;99.90;;;;;;5033233;28;20170;-64
2023/03/14 07:23:52;;;;;;;10.77;1.40;;;5.80;99.90;;;;;;5033604;28;20514;-67
2023/03/14 07:26:17;;;;;;;10.77;1.23;;;5.90;99.90;;;;;;5033639;28;20185;-67
2023/03/14 07:28:43;;;;;;;12.97;1.10;;;5.90;99.90;;;;;;5034170;28;20533;-65
2023/03/14 07:31:09;;;;;;;8.67;1.10;;;6.20;99.90;;;;;;5037249;28;20252;-66
2023/03/14 07:33:35;;;;;;;10.67;1.07;;;5.90;99.90;;;;;;5054052;28;20249;-66
2023/03/14 07:36:01;;;;;;;11.80;1.40;;;6.00;99.90;;;;;;5054184;28;20188;-67
2023/03/14 07:38:27;;;;;;;10.40;1.40;;;6.10;99.90;;;;;;5053937;28;20259;-64
2023/03/14 07:41:00;;;;;;;13.43;1.47;;;6.50;99.90;;;;;;5054069;28;20570;-64
2023/03/14 07:43:26;;;;;;;6.50;1.33;;;6.10;99.90;;;;;;5053337;28;20663;-67
2023/03/14 07:45:51;;;;;;;8.00;1.20;;;6.30;99.90;;;;;;5045512;28;20246;-67
2023/03/14 07:48:17;;;;;;;13.27;0.93;;;;;;;;;;5053922;28;20169;-66
2023/03/14 07:50:43;;;;;;;19.70;1.30;;;6.30;99.90;;;;;;5032997;28;20223;-65
2023/03/14 07:53:09;;;;;;;6.60;0.90;;;6.30;99.90;;;;;;5045509;28;20190;-65
2023/03/14 07:55:35;;;;;;;10.57;1.63;;;6.50;99.90;;;;;;5053752;28;20223;-65
2023/03/14 07:58:01;;;;;;;7.73;1.23;;;6.70;99.90;;;;;;5051263;28;20632;-65
2023/03/14 08:00:27;;;;;;;8.43;1.00;;;6.60;99.90;;;;;;5052221;28;20177;-65
2023/03/14 08:02:52;;;;;;;5.63;0.70;;;6.50;99.90;;;;;;5052016;28;20173;-65
2023/03/14 08:05:18;;;;;;;11.30;1.37;;;6.70;99.90;;;;;;5032974;28;20170;-65
2023/03/14 08:07:43;;;;;;;3.57;0.87;;;6.80;99.90;;;;;;5040699;28;20632;-65
2023/03/14 08:10:10;;;;;;;8.70;1.17;;;6.70;99.90;;;;;;5050628;28;20404;-66
2023/03/14 08:12:35;;;;;;;6.10;1.10;;;6.60;99.90;;;;;;5042535;28;20253;-66
2023/03/14 08:15:02;;;;;;;3.67;1.03;;;;;;;;;;5048395;28;20565;-67
2023/03/14 08:17:27;;;;;;;5.73;1.40;;;6.90;99.90;;;;;;5051712;28;20280;-66
2023/03/14 08:19:53;;;;;;;3.73;0.93;;;6.90;99.90;;;;;;5053071;28;20257;-66
2023/03/14 08:22:18;;;;;;;11.77;1.10;;;6.70;99.90;;;;;;5047835;28;20185;-66
2023/03/14 08:24:44;;;;;;;3.33;1.00;;;7.30;99.90;;;;;;5043703;28;20261;-67
2023/03/14 08:27:10;;;;;;;3.13;0.80;;;;;;;;;;5044966;28;20181;-67
2023/03/14 08:29:36;;;;;;;4.77;0.97;;;6.90;99.90;;;;;;5052616;28;20165;-68
2023/03/14 08:32:01;;;;;;;5.80;1.10;;;6.80;99.90;;;;;;5047652;28;20178;-65
2023/03/14 08:34:27;;;;;;;5.27;0.80;;;;;;;;;;5042480;28;20173;-65
2023/03/14 08:36:55;;;;;;;8.77;1.10;;;7.00;99.90;;;;;;5037206;28;20235;-65
2023/03/14 08:39:20;;;;;;;8.23;1.17;;;6.70;99.90;;;;;;5038219;28;20224;-65
2023/03/14 08:41:46;;;;;;;8.83;1.17;;;7.10;99.90;;;;;;5028572;28;20528;-65
2023/03/14 08:44:12;;;;;;;10.60;0.87;;;7.00;99.90;;;;;;5045630;28;20201;-65
2023/03/14 08:46:37;;;;;;;3.97;0.80;;;7.00;99.90;;;;;;5051123;28;20669;-65
2023/03/14 08:49:03;;;;;;;5.03;0.90;;;7.00;99.90;;;;;;5050836;28;20162;-66
2023/03/14 08:51:29;;;;;;;4.20;0.77;;;7.60;99.90;;;;;;5052359;28;20230;-65
2023/03/14 08:53:55;;;;;;;3.93;0.60;;;;;;;;;;5046345;28;20177;-66
2023/03/14 08:56:21;;;;;;;3.10;1.00;;;7.50;99.90;;;;;;5051710;28;20639;-66
2023/03/14 08:58:46;;;;;;;2.20;0.80;;;8.70;99.90;;;;;;5050608;28;20258;-66
2023/03/14 09:01:12;;;;;;;1.10;0.60;;;8.80;99.90;;;;;;5051624;28;20181;-66
2023/03/14 09:03:38;;;;;;;2.57;0.77;;;9.40;99.90;;;;;;5052111;28;20193;-66
2023/03/14 09:06:09;;;;;;;2.83;0.70;;;9.20;99.90;;;;;;5051535;28;20161;-66
2023/03/14 09:08:35;;;;;;;4.93;0.67;;;9.70;99.90;;;;;;5050142;28;20176;-65
2023/03/14 09:11:01;;;;;;;1.57;0.50;;;9.50;99.90;;;;;;5046256;28;20256;-65
2023/03/14 09:13:27;;;;;;;4.00;0.60;;;9.70;99.90;;;;;;5051879;28;20307;-65
2023/03/14 09:15:56;;;;;;;2.30;0.70;;;9.70;99.90;;;;;;5050707;28;20656;-65
2023/03/14 09:18:22;;;;;;;1.23;0.50;;;9.00;99.90;;;;;;5050651;28;20219;-65
2023/03/14 09:20:48;;;;;;;0.83;0.50;;;9.00;99.90;;;;;;5051990;28;20603;-65
2023/03/14 09:23:14;;;;;;;4.57;0.60;;;9.30;99.90;;;;;;5046727;28;20246;-66
2023/03/14 09:25:40;;;;;;;2.00;0.53;;;9.00;99.90;;;;;;5051526;28;20230;-67
2023/03/14 09:28:06;;;;;;;1.40;0.60;;;;;;;;;;5051195;28;20728;-66
2023/03/14 09:30:32;;;;;;;0.73;0.50;;;9.20;99.90;;;;;;5051799;28;20173;-67
2023/03/14 09:32:58;;;;;;;1.03;0.60;;;9.30;99.90;;;;;;5051738;28;20197;-67
2023/03/14 09:35:24;;;;;;;3.27;0.60;;;8.60;99.90;;;;;;5051018;28;20303;-68
2023/03/14 09:37:50;;;;;;;1.13;0.80;;;6.50;99.90;;;;;;5045064;28;20667;-69
2023/03/14 09:40:18;;;;;;;0.50;0.50;;;9.00;99.90;;;;;;5050386;28;20652;-70
2023/03/14 09:42:43;;;;;;;1.10;0.50;;;9.00;99.90;;;;;;5050303;28;20184;-69
2023/03/14 09:45:40;;;;;;;2.00;0.80;;;9.10;99.90;;;;;;5047334;28;20177;-67
2023/03/14 09:48:11;;;;;;;0.53;0.50;;;9.10;99.90;;;;;;5031144;28;20184;-67
2023/03/14 09:50:41;;;;;;;1.33;0.47;;;9.10;99.90;;;;;;5015488;28;20185;-67
2023/03/14 09:53:12;;;;;;;1.27;0.60;;;9.20;99.90;;;;;;5051291;28;20165;-67
2023/03/14 09:55:39;;;;;;;2.80;0.60;;;9.00;99.90;;;;;;5048466;28;20257;-67
2023/03/14 09:58:11;;;;;;;1.17;0.57;;;9.30;99.90;;;;;;5039702;28;20299;-67
2023/03/14 10:00:37;;;;;;;0.80;0.50;;;9.40;99.90;;;;;;5045716;28;20663;-65
2023/03/14 10:03:11;;;;;;;3.23;0.40;;;9.40;99.90;;;;;;5031183;28;20178;-65
2023/03/14 10:05:38;;;;;;;1.37;0.53;;;12.40;99.90;;;;;;5049739;28;20172;-64
2023/03/14 10:08:04;;;;;;;3.67;0.50;;;11.70;99.90;;;;;;5047208;28;20299;-64
2023/03/14 10:10:30;;;;;;;1.75;0.40;;;15.00;99.90;;;;;;5037393;28;20205;-65
2023/03/14 10:13:16;;;;;;;1.20;0.32;;;15.90;99.90;;;;;;5037769;28;20221;-65
2023/03/14 10:15:47;;;;;;;0.57;0.30;;;15.50;99.90;;;;;;5044507;28;20230;-65
2023/03/14 10:18:14;;;;;;;1.65;0.47;;;13.00;99.90;;;;;;5049226;28;20220;-66
2023/03/14 10:20:43;;;;;;;1.25;0.20;;;11.50;99.90;;;;;;5048665;28;20180;-66
2023/03/14 10:23:11;;;;;;;1.48;0.32;;;10.60;99.90;;;;;;5038413;28;20200;-66
2023/03/14 10:25:43;;;;;;;1.33;0.30;;;11.70;99.90;;;;;;5044208;28;20177;-66
2023/03/14 10:28:33;;;;;;;1.07;0.30;;;9.60;99.90;;;;;;5036700;28;20215;-66
2023/03/14 10:31:00;;;;;;;3.30;0.30;;;9.00;99.90;;;;;;5027625;28;20201;-66
2023/03/14 10:33:29;;;;;;;0.60;0.20;;;10.40;99.90;;;;;;5049537;28;20177;-66
2023/03/14 10:36:00;;;;;;;1.90;0.40;;;12.70;99.90;;;;;;5047065;28;20685;-66
2023/03/14 10:38:28;;;;;;;0.67;0.30;;;12.60;99.90;;;;;;5030778;28;20205;-66
2023/03/14 10:40:56;;;;;;;4.43;0.70;;;11.10;99.90;;;;;;5040376;28;20181;-66
2023/03/14 10:43:31;;;;;;;1.57;0.30;;;11.10;99.90;;;;;;5049686;28;20474;-66
2023/03/14 10:46:08;;;;;;;1.23;0.20;;;10.40;99.90;;;;;;5047900;28;20169;-65
2023/03/14 10:48:41;;;;;;;0.87;0.30;;;9.90;99.90;;;;;;5048743;28;20556;-65
2023/03/14 10:51:16;;;;;;;0.37;0.23;;;9.80;99.90;;;;;;5048779;28;20173;-65
2023/03/14 10:53:44;;;;;;;0.73;0.30;;;9.90;99.90;;;;;;5047349;28;20216;-65
2023/03/14 10:56:19;;;;;;;0.70;0.30;;;9.80;99.90;;;;;;5035966;28;20174;-65
2023/03/14 10:58:47;;;;;;;0.63;0.20;;;10.20;99.90;;;;;;5039462;28;20222;-66
2023/03/14 11:01:21;;;;;;;4.30;0.70;;;10.20;99.90;;;;;;5050602;28;20173;-65
2023/03/14 11:03:57;;;;;;;1.90;0.37;;;10.00;99.90;;;;;;5044663;28;20709;-66
2023/03/14 11:06:28;;;;;;;1.13;0.20;;;9.70;99.90;;;;;;5030731;28;20169;-65
2023/03/14 11:09:30;;;;;;;0.67;0.47;;;9.20;99.90;;;;;;5012945;28;20181;-65
2023/03/14 11:12:20;;;;;;;0.77;0.20;;;9.40;99.90;;;;;;5030509;28;20645;-65
2023/03/14 11:14:54;;;;;;;0.97;0.30;;;16.00;99.90;;;;;;5030656;28;20182;-65
2023/03/14 11:17:56;;;;;;;0.17;0.15;;;17.40;99.90;;;;;;5047640;28;20295;-66
2023/03/14 11:20:43;;;;;;;0.95;0.30;;;18.20;99.90;;;;;;4977605;28;20192;-67
2023/03/14 11:23:14;;;;;;;1.85;0.60;;;18.30;99.90;;;;;;5048503;28;20169;-67
2023/03/14 11:25:58;;;;;;;1.00;0.70;;;18.80;99.90;;;;;;5050095;28;20165;-68
2023/03/14 11:28:23;;;;;;;0.80;0.60;;;20.40;99.90;;;;;;5044522;28;20178;-67
2023/03/14 11:31:04;;;;;;;1.20;0.50;;;20.60;93.90;;;;;;5050371;28;20543;-67
2023/03/14 11:33:47;;;;;;;0.93;0.40;;;21.10;88.40;;;;;;5050356;28;20173;-66
2023/03/14 11:36:23;;;;;;;3.65;0.43;;;20.30;50.50;;;;;;5049742;28;20624;-66
2023/03/14 11:38:51;;;;;;;1.25;0.40;;;15.60;61.00;;;;;;5049605;28;20275;-65
2023/03/14 11:41:27;;;;;;;2.35;0.50;;;15.50;62.00;;;;;;5053624;28;20212;-66
2023/03/14 11:43:57;;;;;;;1.58;0.47;;;17.10;91.30;;;;;;5054212;28;20283;-65
2023/03/14 11:46:25;;;;;;;3.10;0.68;;;19.00;59.40;;;;;;5053952;28;20192;-66
2023/03/14 11:49:11;;;;;;;6.63;1.20;;;19.20;57.60;;;;;;5053017;28;20169;-66
2023/03/14 11:51:41;;;;;;;2.15;0.50;;;20.20;38.90;;;;;;5052909;28;20209;-66
2023/03/14 11:54:19;;;;;;;4.03;0.60;;;20.20;42.80;;;;;;5052974;28;20641;-66
2023/03/14 11:57:09;;;;;;;3.05;0.60;;;21.10;25.10;;;;;;5053728;28;20173;-66
2023/03/14 12:00:03;;;;;;;1.08;0.43;;;21.30;26.70;;;;;;5053635;28;20200;-67
2023/03/14 12:02:48;;;;;;;5.88;0.70;;;21.00;2.30;;;;;;5046168;28;20185;-67
2023/03/14 12:05:41;;;;;;;0.88;0.40;;;21.60;1.00;;;;;;5053627;28;20268;-67
2023/03/14 12:08:09;;;;;;;1.70;0.70;;;21.20;1.00;;;;;;5053575;28;20169;-68
2023/03/14 12:11:06;;;;;;;2.13;0.70;;;21.70;1.00;;;;;;5035500;28;20173;-66
2023/03/14 12:13:37;;;;;;;3.53;1.02;;;21.30;1.00;;;;;;5022365;28;20233;-68
2023/03/14 12:16:32;;;;;;;2.20;0.70;;;21.10;1.00;;;;;;5053388;28;20165;-66
2023/03/14 12:19:19;;;;;;;1.65;0.52;;;19.60;1.00;;;;;;5045539;28;20324;-67
2023/03/14 12:21:53;;;;;;;1.50;0.60;;;17.70;1.00;;;;;;5053281;28;20628;-67
2023/03/14 12:24:22;;;;;;;3.88;0.93;;;17.10;1.00;;;;;;5053271;28;20264;-66
2023/03/14 12:27:00;;;;;;;2.13;0.57;;;17.10;1.00;;;;;;5053085;28;20168;-66
2023/03/14 12:29:26;;;;;;;3.17;0.93;;;18.20;1.00;;;;;;5053145;28;20173;-66
2023/03/14 12:32:01;;;;;;;2.03;0.55;;;19.50;1.00;;;;;;5052993;28;20231;-67
2023/03/14 12:34:45;;;;;;;2.08;0.70;;;20.50;1.00;;;;;;5052020;28;20259;-67
2023/03/14 12:37:16;;;;;;;8.32;0.88;;;20.50;1.00;;;;;;5053002;28;20161;-67
2023/03/14 12:40:10;;;;;;;1.92;0.80;;;21.20;1.00;;;;;;5052837;28;20181;-67
2023/03/14 12:42:59;;;;;;;6.53;1.35;;;21.10;1.00;;;;;;5053221;28;20623;-67
2023/03/14 12:45:26;;;;;;;8.98;1.17;;;21.10;1.00;;;;;;5052160;28;20215;-66
2023/03/14 12:47:56;;;;;;;3.08;1.00;;;21.50;1.00;;;;;;5052804;28;20185;-67
2023/03/14 12:50:28;;;;;;;5.63;1.20;;;18.50;1.00;;;;;;5052494;28;20182;-66
2023/03/14 12:53:27;;;;;;;1.75;0.75;;;18.80;1.00;;;;;;5053059;28;20259;-66
2023/03/14 12:56:18;;;;;;;3.63;0.73;;;19.60;1.00;;;;;;5019032;28;20258;-66
2023/03/14 12:59:02;;;;;;;2.45;0.80;;;18.90;1.00;;;;;;5052629;28;20686;-66
2023/03/14 13:01:27;;;;;;;4.07;1.00;;;18.30;1.00;;;;;;5052652;28;20200;-66
2023/03/14 13:03:57;;;;;;;6.75;1.05;;;16.30;1.00;;;;;;5052536;28;20563;-66
2023/03/14 13:06:46;;;;;;;7.40;1.25;;;16.10;1.00;;;;;;5052593;28;20176;-66
2023/03/14 13:09:55;;;;;;;2.88;0.77;;;15.10;1.00;;;;;;5048767;28;20181;-66